Time;durP1;ratioP1;P1;durP2;ratioP2;P2;SDS_P1;SDS_P2;PMS_P1;PMS_P2;Temp;Humidity;BMP_temperature;BMP_pressure;BME280_temperature;BME280_humidity;BME280_pressure;Samples;Min_cycle;Max_cycle;Signal;HPM_P1;HPM_P2
2023/08/08 00:01:42;;;;;;;;;;;;;;;20.35;51.03;101395.22;4950747;28;19929;-71
2023/08/08 00:04:08;;;;;;;;;;;;;;;20.34;51.25;101386.19;4953428;28;19918;-71
2023/08/08 00:06:33;;;;;;;;;;;;;;;20.31;51.29;101390.31;4951007;28;20381;-72
2023/08/08 00:08:59;;;;;;;;;;;;;;;20.29;51.35;101397.22;4951747;29;19923;-72
2023/08/08 00:11:24;;;;;;;;;;;;;;;20.29;51.02;101395.28;4953091;28;20251;-73
2023/08/08 00:13:49;;;;;;;;;;;;;;;20.27;50.95;101388.47;4953129;28;20012;-71
2023/08/08 00:16:14;;;;;;;;;;;;;;;20.26;51.10;101389.53;4950605;29;20271;-71
2023/08/08 00:18:40;;;;;;;;;;;;;;;20.24;51.37;101384.38;4951078;28;19933;-71
2023/08/08 00:21:05;;;;;;;;;;;;;;;20.21;51.00;101384.97;4951504;29;20555;-71
2023/08/08 00:23:30;;;;;;;;;;;;;;;20.21;51.35;101375.88;4949508;28;19932;-72
2023/08/08 00:25:56;;;;;;;;;;;;;;;20.20;51.10;101382.50;4952199;28;19923;-71
2023/08/08 00:28:21;;;;;;;;;;;;;;;20.18;51.34;101384.72;4952188;29;19929;-71
2023/08/08 00:30:46;;;;;;;;;;;;;;;20.17;51.06;101385.84;4951152;28;19926;-71
2023/08/08 00:33:11;;;;;;;;;;;;;;;20.15;51.46;101385.31;4951507;29;20009;-72
2023/08/08 00:35:37;;;;;;;;;;;;;;;20.14;51.43;101383.69;4951041;28;20292;-72
2023/08/08 00:38:02;;;;;;;;;;;;;;;20.11;51.44;101382.34;4952923;28;19922;-71
2023/08/08 00:40:27;;;;;;;;;;;;;;;20.10;51.17;101380.69;4950935;29;19922;-74
2023/08/08 00:42:52;;;;;;;;;;;;;;;20.09;51.25;101379.06;4966494;28;20367;-74
2023/08/08 00:45:18;;;;;;;;;;;;;;;20.07;51.07;101379.34;4968225;28;19995;-71
2023/08/08 00:47:43;;;;;;;;;;;;;;;20.06;51.19;101379.66;4951183;29;20224;-71
2023/08/08 00:50:09;;;;;;;;;;;;;;;20.05;51.42;101369.78;4949617;28;20437;-71
2023/08/08 00:52:35;;;;;;;;;;;;;;;20.04;51.17;101368.97;4952149;29;19919;-71
2023/08/08 00:55:01;;;;;;;;;;;;;;;20.03;51.46;101371.97;4952066;29;19925;-70
2023/08/08 00:57:26;;;;;;;;;;;;;;;20.01;51.18;101366.81;4952328;29;19977;-72
2023/08/08 00:59:52;;;;;;;;;;;;;;;20.00;51.20;101369.81;4952569;29;19923;-70
2023/08/08 01:02:17;;;;;;;;;;;;;;;19.98;51.57;101370.13;4934206;29;20298;-72
2023/08/08 01:04:43;;;;;;;;;;;;;;;19.97;51.33;101368.50;4949612;29;20371;-71
2023/08/08 01:07:18;;;;;;;;;;;;;;;19.96;51.25;101364.13;4950498;29;19922;-71
2023/08/08 01:09:47;;;;;;;;;;;;;;;19.95;51.30;101358.91;4951177;28;19918;-72
2023/08/08 01:12:13;;;;;;;;;;;;;;;19.94;51.26;101357.28;4952215;29;19918;-73
2023/08/08 01:14:40;;;;;;;;;;;;;;;19.93;51.33;101361.13;4951913;28;19919;-73
2023/08/08 01:17:06;;;;;;;;;;;;;;;19.91;51.72;101357.84;4950860;29;19922;-71
2023/08/08 01:19:32;;;;;;;;;;;;;;;19.90;51.39;101357.03;4951237;28;19922;-74
2023/08/08 01:22:00;;;;;;;;;;;;;;;19.88;51.49;101356.50;4952564;29;19919;-72
2023/08/08 01:24:29;;;;;;;;;;;;;;;19.86;51.39;101358.75;4951798;29;19919;-71
2023/08/08 01:26:54;;;;;;;;;;;;;;;19.85;51.72;101357.91;4952641;28;19966;-72
2023/08/08 01:29:19;;;;;;;;;;;;;;;19.84;51.51;101355.47;4956398;29;19926;-71
2023/08/08 01:31:45;;;;;;;;;;;;;;;19.82;51.41;101353.00;4956054;29;19938;-71
2023/08/08 01:34:10;;;;;;;;;;;;;;;19.82;51.71;101354.94;4951108;28;19956;-71
2023/08/08 01:36:42;;;;;;;;;;;;;;;19.80;51.74;101354.41;4944654;29;20367;-72
2023/08/08 01:39:10;;;;;;;;;;;;;;;19.79;51.82;101341.81;4955675;28;20367;-73
2023/08/08 01:41:38;;;;;;;;;;;;;;;19.78;51.30;101349.22;4956107;29;20008;-71
2023/08/08 01:44:03;;;;;;;;;;;;;;;19.77;51.64;101342.09;4943003;29;20010;-71
2023/08/08 01:46:29;;;;;;;;;;;;;;;19.75;51.79;101336.09;4953792;29;20052;-72
2023/08/08 01:48:54;;;;;;;;;;;;;;;19.75;51.85;101338.81;4954417;28;19925;-71
2023/08/08 01:51:19;;;;;;;;;;;;;;;19.74;51.49;101334.47;4954780;29;20390;-71
2023/08/08 01:53:45;;;;;;;;;;;;;;;19.73;51.56;101337.47;4954070;28;19929;-71
2023/08/08 01:56:10;;;;;;;;;;;;;;;19.72;51.53;101338.59;4956251;29;19926;-71
2023/08/08 01:58:35;;;;;;;;;;;;;;;19.70;51.89;101336.13;4954696;29;19942;-73
2023/08/08 02:01:00;;;;;;;;;;;;;;;19.69;51.66;101344.66;4954272;28;20185;-71
2023/08/08 02:03:26;;;;;;;;;;;;;;;19.68;51.86;101341.13;4952991;29;19922;-71
2023/08/08 02:05:51;;;;;;;;;;;;;;;19.67;51.69;101336.72;4954809;28;19926;-71
2023/08/08 02:08:18;;;;;;;;;;;;;;;19.66;51.54;101340.56;4953816;28;20334;-71
2023/08/08 02:10:43;;;;;;;;;;;;;;;19.65;51.94;101337.00;4955506;28;20331;-71
2023/08/08 02:13:08;;;;;;;;;;;;;;;19.63;51.98;101338.38;4952322;29;20473;-71
2023/08/08 02:15:33;;;;;;;;;;;;;;;19.62;51.72;101326.59;4955171;29;19926;-72
2023/08/08 02:17:59;;;;;;;;;;;;;;;19.60;51.64;101334.28;4953623;28;21794;-72
2023/08/08 02:20:25;;;;;;;;;;;;;;;19.59;51.75;101324.44;4952803;28;19934;-72
2023/08/08 02:22:51;;;;;;;;;;;;;;;19.58;51.70;101325.56;4954520;28;19969;-72
2023/08/08 02:25:16;;;;;;;;;;;;;;;19.57;51.82;101334.88;4938634;29;19950;-72
2023/08/08 02:27:41;;;;;;;;;;;;;;;19.57;52.08;101336.78;4953824;28;21807;-71
2023/08/08 02:30:07;;;;;;;;;;;;;;;19.55;51.77;101331.59;4951691;28;19922;-72
2023/08/08 02:32:32;;;;;;;;;;;;;;;19.54;51.90;101320.94;4953366;28;20382;-71
2023/08/08 02:34:57;;;;;;;;;;;;;;;19.53;52.04;101314.66;4955419;28;20513;-72
2023/08/08 02:37:22;;;;;;;;;;;;;;;19.52;52.01;101312.19;4951968;28;19925;-73
2023/08/08 02:39:48;;;;;;;;;;;;;;;19.50;51.82;101312.47;4952886;29;19926;-72
2023/08/08 02:42:13;;;;;;;;;;;;;;;19.49;51.79;101310.03;4950011;29;20342;-72
2023/08/08 02:44:38;;;;;;;;;;;;;;;19.49;52.16;101315.50;4955704;29;20005;-73
2023/08/08 02:47:03;;;;;;;;;;;;;;;19.49;52.19;101310.03;4954298;29;20358;-72
2023/08/08 02:49:29;;;;;;;;;;;;;;;19.46;51.90;101314.16;4953403;29;20020;-71
2023/08/08 02:51:54;;;;;;;;;;;;;;;19.45;52.15;101310.59;4952336;28;19930;-71
2023/08/08 02:54:20;;;;;;;;;;;;;;;19.44;52.20;101305.41;4955263;29;19922;-71
2023/08/08 02:56:45;;;;;;;;;;;;;;;19.44;51.91;101302.66;4952932;28;19957;-72
2023/08/08 02:59:10;;;;;;;;;;;;;;;19.42;52.32;101296.66;4955260;28;19945;-72
2023/08/08 03:01:39;;;;;;;;;;;;;;;19.41;51.94;101300.50;4953806;29;20005;-72
2023/08/08 03:04:04;;;;;;;;;;;;;;;19.40;52.38;101309.81;4953146;28;19934;-72
2023/08/08 03:06:29;;;;;;;;;;;;;;;19.39;52.32;101303.53;4953613;29;20322;-71
2023/08/08 03:08:55;;;;;;;;;;;;;;;19.37;52.08;101302.19;4954359;29;19923;-71
2023/08/08 03:11:20;;;;;;;;;;;;;;;19.37;52.05;101303.00;4953521;28;19922;-71
2023/08/08 03:13:45;;;;;;;;;;;;;;;19.35;52.16;101294.28;4953021;29;19942;-72
2023/08/08 03:16:10;;;;;;;;;;;;;;;19.34;52.46;101294.53;4953181;28;19922;-71
2023/08/08 03:18:36;;;;;;;;;;;;;;;19.33;52.18;101301.94;4952943;28;19930;-71
2023/08/08 03:21:01;;;;;;;;;;;;;;;19.32;52.39;101305.78;4953503;29;20029;-71
2023/08/08 03:23:26;;;;;;;;;;;;;;;19.31;52.47;101298.69;4952260;29;19919;-71
2023/08/08 03:25:52;;;;;;;;;;;;;;;19.31;52.14;101300.59;4953249;28;19923;-71
2023/08/08 03:28:17;;;;;;;;;;;;;;;19.31;52.25;101297.88;4951617;28;20390;-71
2023/08/08 03:30:42;;;;;;;;;;;;;;;19.29;52.14;101300.88;4953378;29;19922;-71
2023/08/08 03:33:07;;;;;;;;;;;;;;;19.27;52.41;101294.88;4951903;28;19953;-71
2023/08/08 03:35:33;;;;;;;;;;;;;;;19.28;52.62;101295.69;4952904;29;20271;-71
2023/08/08 03:37:58;;;;;;;;;;;;;;;19.27;52.61;101291.31;4949151;28;19922;-74
2023/08/08 03:40:23;;;;;;;;;;;;;;;19.26;52.48;101286.97;4953335;28;20382;-72
2023/08/08 03:42:49;;;;;;;;;;;;;;;19.25;52.23;101288.84;4953552;28;20013;-72
2023/08/08 03:45:14;;;;;;;;;;;;;;;19.24;52.71;101287.22;4954192;28;19929;-72
2023/08/08 03:47:39;;;;;;;;;;;;;;;19.23;52.40;101288.34;4953083;29;19981;-71
2023/08/08 03:50:05;;;;;;;;;;;;;;;19.22;52.68;101284.78;4950899;28;19922;-71
2023/08/08 03:52:31;;;;;;;;;;;;;;;19.20;52.68;101287.00;4953256;28;19922;-72
2023/08/08 03:54:56;;;;;;;;;;;;;;;19.20;52.69;101281.53;4952945;28;19922;-71
2023/08/08 03:57:21;;;;;;;;;;;;;;;19.19;52.46;101293.56;4950722;29;20302;-73
2023/08/08 03:59:46;;;;;;;;;;;;;;;19.19;52.80;101284.53;4952677;29;19969;-74
2023/08/08 04:02:12;;;;;;;;;;;;;;;19.17;52.78;101281.28;4966890;28;19922;-71
2023/08/08 04:04:38;;;;;;;;;;;;;;;19.16;52.69;101280.47;4952921;29;19922;-72
2023/08/08 04:07:04;;;;;;;;;;;;;;;19.15;52.60;101289.78;4950904;29;19922;-71
2023/08/08 04:09:29;;;;;;;;;;;;;;;19.14;52.85;101288.13;4952431;28;19924;-71
2023/08/08 04:11:54;;;;;;;;;;;;;;;19.13;52.79;101283.78;4952296;28;19918;-71
2023/08/08 04:14:19;;;;;;;;;;;;;;;19.13;52.49;101282.97;4953290;29;20371;-72
2023/08/08 04:16:45;;;;;;;;;;;;;;;19.12;52.60;101278.56;4934511;29;19937;-71
2023/08/08 04:19:10;;;;;;;;;;;;;;;19.10;52.56;101281.63;4951401;29;19977;-71
2023/08/08 04:21:35;;;;;;;;;;;;;;;19.09;52.89;101274.50;4952772;29;20286;-71
2023/08/08 04:24:01;;;;;;;;;;;;;;;19.08;52.91;101274.78;4944336;29;19926;-71
2023/08/08 04:26:26;;;;;;;;;;;;;;;19.07;53.19;101279.44;4952858;28;20009;-72
2023/08/08 04:28:52;;;;;;;;;;;;;;;19.06;52.90;101285.22;4953011;29;19922;-71
2023/08/08 04:31:17;;;;;;;;;;;;;;;19.04;52.64;101285.47;4950386;28;20290;-72
2023/08/08 04:33:42;;;;;;;;;;;;;;;19.05;52.65;101284.41;4951025;28;20366;-71
2023/08/08 04:36:08;;;;;;;;;;;;;;;19.02;52.81;101280.31;4951574;28;20286;-70
2023/08/08 04:38:33;;;;;;;;;;;;;;;19.02;52.75;101288.53;4952760;28;20371;-71
2023/08/08 04:40:59;;;;;;;;;;;;;;;19.00;52.96;101290.72;4952942;29;19961;-71
2023/08/08 04:43:24;;;;;;;;;;;;;;;19.00;52.79;101290.72;4951314;28;19948;-72
2023/08/08 04:45:50;;;;;;;;;;;;;;;18.98;52.71;101290.19;4953448;28;19923;-72
2023/08/08 04:48:16;;;;;;;;;;;;;;;18.99;52.84;101294.56;4951865;28;19926;-72
2023/08/08 04:50:41;;;;;;;;;;;;;;;18.97;52.69;101294.00;4952929;29;19926;-72
2023/08/08 04:53:06;;;;;;;;;;;;;;;18.96;52.76;101292.38;4951150;28;19922;-72
2023/08/08 04:55:31;;;;;;;;;;;;;;;18.95;53.01;101293.50;4952014;29;20005;-72
2023/08/08 04:57:57;;;;;;;;;;;;;;;18.94;53.07;101289.13;4951148;29;19933;-72
2023/08/08 05:00:22;;;;;;;;;;;;;;;18.93;52.98;101287.50;4952797;28;19923;-73
2023/08/08 05:02:47;;;;;;;;;;;;;;;18.92;52.85;101291.31;4947849;28;19925;-73
2023/08/08 05:05:13;;;;;;;;;;;;;;;18.91;52.85;101289.69;4950701;29;19972;-70
2023/08/08 05:07:38;;;;;;;;;;;;;;;18.90;53.03;101285.34;4951736;28;19944;-71
2023/08/08 05:10:04;;;;;;;;;;;;;;;18.90;53.08;101292.72;4952685;28;19982;-71
2023/08/08 05:12:29;;;;;;;;;;;;;;;18.89;52.94;101297.38;4950238;29;19978;-71
2023/08/08 05:14:54;;;;;;;;;;;;;;;18.88;53.17;101289.47;4951943;29;19969;-73
2023/08/08 05:17:20;;;;;;;;;;;;;;;18.86;52.82;101291.66;4951733;29;19929;-71
2023/08/08 05:19:45;;;;;;;;;;;;;;;18.86;53.25;101288.91;4952979;28;20293;-69
2023/08/08 05:22:10;;;;;;;;;;;;;;;18.85;52.99;101290.84;4951075;29;20357;-68
2023/08/08 05:24:36;;;;;;;;;;;;;;;18.85;53.19;101295.47;4950898;29;19926;-71
2023/08/08 05:27:01;;;;;;;;;;;;;;;18.83;53.47;101290.31;4953126;29;20331;-71
2023/08/08 05:29:26;;;;;;;;;;;;;;;18.83;53.43;101303.19;4950139;29;19926;-71
2023/08/08 05:31:52;;;;;;;;;;;;;;;18.82;53.50;101305.06;4953312;29;20351;-71
2023/08/08 05:34:17;;;;;;;;;;;;;;;18.81;53.12;101301.53;4951831;29;19922;-72
2023/08/08 05:36:42;;;;;;;;;;;;;;;18.82;53.34;101307.81;4951297;29;20001;-72
2023/08/08 05:39:09;;;;;;;;;;;;;;;18.81;53.19;101303.47;4950574;29;19924;-72
2023/08/08 05:41:34;;;;;;;;;;;;;;;18.81;53.29;101300.72;4968163;28;20425;-72
2023/08/08 05:44:00;;;;;;;;;;;;;;;18.81;53.43;101300.72;4950191;29;19926;-73
2023/08/08 05:46:25;;;;;;;;;;;;;;;18.81;53.32;101297.97;4951737;29;19922;-72
2023/08/08 05:48:50;;;;;;;;;;;;;;;18.80;53.20;101294.44;4949595;29;19965;-72
2023/08/08 05:51:15;;;;;;;;;;;;;;;18.79;53.50;101297.44;4950950;29;19918;-72
2023/08/08 05:53:41;;;;;;;;;;;;;;;18.79;53.51;101294.72;4952253;29;19926;-72
2023/08/08 05:56:06;;;;;;;;;;;;;;;18.79;53.20;101292.78;4950949;29;19976;-72
2023/08/08 05:58:31;;;;;;;;;;;;;;;18.78;53.19;101298.56;4950942;28;19974;-72
2023/08/08 06:00:57;;;;;;;;;;;;;;;18.78;53.90;101296.63;4952797;28;20353;-73
2023/08/08 06:03:22;;;;;;;;;;;;;;;18.78;53.87;101298.56;4951523;29;20000;-72
2023/08/08 06:05:48;;;;;;;;;;;;;;;18.77;53.84;101299.63;4951279;29;20141;-73
2023/08/08 06:08:14;;;;;;;;;;;;;;;18.78;53.90;101301.28;4966082;28;19930;-74
2023/08/08 06:10:39;;;;;;;;;;;;;;;18.77;53.69;101308.69;4952410;28;20363;-73
2023/08/08 06:13:05;;;;;;;;;;;;;;;18.78;53.71;101310.31;4952304;28;19923;-73
2023/08/08 06:15:30;;;;;;;;;;;;;;;18.77;53.87;101303.22;4953816;29;20330;-73
2023/08/08 06:17:55;;;;;;;;;;;;;;;18.77;53.63;101305.97;4954870;28;20061;-72
2023/08/08 06:20:21;;;;;;;;;;;;;;;18.77;53.79;101308.69;4955816;29;19914;-73
2023/08/08 06:22:46;;;;;;;;;;;;;;;18.78;53.92;101304.03;4955516;29;19922;-73
2023/08/08 06:25:12;;;;;;;;;;;;;;;18.78;53.67;101314.97;4952499;29;19922;-73
2023/08/08 06:27:37;;;;;;;;;;;;;;;18.80;53.81;101313.59;4954179;28;20016;-73
2023/08/08 06:30:02;;;;;;;;;;;;;;;18.80;53.62;101316.34;4954760;29;19949;-72
2023/08/08 06:32:28;;;;;;;;;;;;;;;18.80;53.74;101316.34;4952053;28;19923;-73
2023/08/08 06:34:54;;;;;;;;;;;;;;;18.80;53.84;101318.25;4943515;28;19915;-74
2023/08/08 06:37:20;;;;;;;;;;;;;;;18.81;53.84;101311.66;4952056;29;19922;-73
2023/08/08 06:39:45;;;;;;;;;;;;;;;18.81;53.68;101309.75;4953904;29;19985;-71
2023/08/08 06:42:11;;;;;;;;;;;;;;;18.82;53.71;101316.03;4954472;29;19922;-75
2023/08/08 06:44:41;;;;;;;;;;;;;;;18.83;54.06;101314.94;4955334;29;19922;-73
2023/08/08 06:47:06;;;;;;;;;;;;;;;18.83;53.52;101314.13;4955356;29;19915;-74
2023/08/08 06:49:31;;;;;;;;;;;;;;;18.84;53.52;101316.56;4953791;29;19929;-72
2023/08/08 06:51:57;;;;;;;;;;;;;;;18.85;53.58;101309.16;4945897;28;20025;-73
2023/08/08 06:54:22;;;;;;;;;;;;;;;18.85;53.91;101314.63;4952867;28;19973;-72
2023/08/08 06:56:47;;;;;;;;;;;;;;;18.87;53.70;101309.72;4941575;29;20002;-75
2023/08/08 06:59:12;;;;;;;;;;;;;;;18.86;53.53;101303.41;4952276;29;20030;-72
2023/08/08 07:01:38;;;;;;;;;;;;;;;18.87;53.87;101315.19;4953973;29;19930;-72
2023/08/08 07:04:03;;;;;;;;;;;;;;;18.86;53.62;101317.09;4955285;29;20358;-74
2023/08/08 07:06:28;;;;;;;;;;;;;;;18.88;53.77;101316.84;4952848;29;20548;-73
2023/08/08 07:08:54;;;;;;;;;;;;;;;18.89;54.00;101315.72;4943897;28;19926;-73
2023/08/08 07:11:19;;;;;;;;;;;;;;;18.89;54.02;101324.75;4951080;28;19973;-70
2023/08/08 07:13:44;;;;;;;;;;;;;;;18.90;54.07;101315.44;4955325;29;20348;-69
2023/08/08 07:16:09;;;;;;;;;;;;;;;18.93;54.06;101322.28;4953755;29;19938;-73
2023/08/08 07:18:35;;;;;;;;;;;;;;;18.94;54.07;101316.50;4953262;29;19922;-71
2023/08/08 07:21:00;;;;;;;;;;;;;;;18.96;53.86;101318.97;4954363;28;19922;-72
2023/08/08 07:23:25;;;;;;;;;;;;;;;18.97;54.00;101315.91;4952790;28;20258;-73
2023/08/08 07:25:51;;;;;;;;;;;;;;;18.99;54.19;101318.38;4968628;28;20350;-72
2023/08/08 07:28:16;;;;;;;;;;;;;;;19.00;53.97;101315.38;4952207;28;19982;-73
2023/08/08 07:30:41;;;;;;;;;;;;;;;19.01;53.88;101317.00;4951274;28;20298;-72
2023/08/08 07:33:09;;;;;;;;;;;;;;;19.03;53.98;101317.53;4952035;28;20017;-71
2023/08/08 07:35:35;;;;;;;;;;;;;;;19.05;54.25;101316.41;4950782;29;19926;-71
2023/08/08 07:38:00;;;;;;;;;;;;;;;19.07;54.03;101311.47;4951296;28;20570;-73
2023/08/08 07:40:25;;;;;;;;;;;;;;;19.09;54.24;101312.00;4948785;28;19979;-72
2023/08/08 07:42:51;;;;;;;;;;;;;;;19.10;54.28;101310.91;4942917;29;19962;-71
2023/08/08 07:45:16;;;;;;;;;;;;;;;19.12;54.03;101311.44;4953681;28;19957;-73
2023/08/08 07:47:41;;;;;;;;;;;;;;;19.14;54.35;101311.97;4950048;28;19974;-72
2023/08/08 07:50:10;;;;;;;;;;;;;;;19.15;54.10;101305.38;4950433;29;19923;-73
2023/08/08 07:52:36;;;;;;;;;;;;;;;19.17;54.33;101311.38;4952481;29;19989;-71
2023/08/08 07:55:03;;;;;;;;;;;;;;;19.18;54.37;101313.84;4945694;28;19918;-72
2023/08/08 07:57:28;;;;;;;;;;;;;;;19.20;54.42;101313.56;4967759;28;19940;-72
2023/08/08 07:59:53;;;;;;;;;;;;;;;19.22;54.34;101323.13;4951999;28;20366;-72
2023/08/08 08:02:18;;;;;;;;;;;;;;;19.24;54.25;101318.16;4944791;29;19950;-72
2023/08/08 08:04:44;;;;;;;;;;;;;;;19.27;54.43;101313.22;4946894;29;20013;-71
2023/08/08 08:07:09;;;;;;;;;;;;;;;19.28;54.17;101318.44;4952951;29;20323;-73
2023/08/08 08:09:34;;;;;;;;;;;;;;;19.30;54.34;101316.19;4951959;28;19922;-72
2023/08/08 08:12:00;;;;;;;;;;;;;;;19.33;54.22;101320.31;4953483;28;19934;-77
2023/08/08 08:14:25;;;;;;;;;;;;;;;19.35;54.39;101315.34;4950974;29;19926;-74
2023/08/08 08:16:51;;;;;;;;;;;;;;;19.38;54.17;101320.28;4951923;29;19933;-74
2023/08/08 08:19:16;;;;;;;;;;;;;;;19.39;54.63;101322.69;4952500;29;20379;-76
2023/08/08 08:21:41;;;;;;;;;;;;;;;19.40;54.58;101316.13;4952259;29;20018;-72
2023/08/08 08:24:06;;;;;;;;;;;;;;;19.43;54.68;101322.97;4951152;29;19929;-73
2023/08/08 08:26:32;;;;;;;;;;;;;;;19.45;54.61;101321.56;4953552;28;19965;-73
2023/08/08 08:28:57;;;;;;;;;;;;;;;19.48;54.66;101316.59;4951786;28;19918;-72
2023/08/08 08:31:22;;;;;;;;;;;;;;;19.48;54.31;101316.59;4950561;28;19985;-74
2023/08/08 08:33:48;;;;;;;;;;;;;;;19.51;54.59;101322.31;4953156;29;19922;-73
2023/08/08 08:36:13;;;;;;;;;;;;;;;19.52;54.82;101320.41;4951469;28;20393;-74
2023/08/08 08:38:38;;;;;;;;;;;;;;;19.55;54.46;101317.88;4951374;29;19922;-74
2023/08/08 08:41:04;;;;;;;;;;;;;;;19.57;54.33;101317.59;4950961;28;20355;-72
2023/08/08 08:43:30;;;;;;;;;;;;;;;19.59;54.58;101312.66;4952089;29;19918;-73
2023/08/08 08:45:57;;;;;;;;;;;;;;;19.61;54.80;101316.75;4952885;29;20286;-74
2023/08/08 08:48:22;;;;;;;;;;;;;;;19.64;54.44;101320.84;4951624;28;20014;-74
2023/08/08 08:50:48;;;;;;;;;;;;;;;19.66;54.83;101321.38;4953746;29;19930;-74
2023/08/08 08:53:15;;;;;;;;;;;;;;;19.68;54.44;101324.66;4952566;29;19965;-73
2023/08/08 08:55:40;;;;;;;;;;;;;;;19.70;54.40;101325.16;4952463;28;19967;-68
2023/08/08 08:58:06;;;;;;;;;;;;;;;19.73;54.83;101326.50;4949500;28;20283;-72
2023/08/08 09:00:32;;;;;;;;;;;;;;;19.75;54.34;101327.84;4967384;28;19922;-73
2023/08/08 09:02:57;;;;;;;;;;;;;;;19.78;54.57;101329.19;4950980;29;20291;-72
2023/08/08 09:05:24;;;;;;;;;;;;;;;19.80;54.57;101327.00;4952411;29;19919;-73
2023/08/08 09:07:51;;;;;;;;;;;;;;;19.82;54.78;101331.06;4950639;29;19956;-73
2023/08/08 09:10:17;;;;;;;;;;;;;;;19.84;54.78;101330.81;4952494;28;20057;-73
2023/08/08 09:12:42;;;;;;;;;;;;;;;19.85;54.57;101324.19;4951447;29;20062;-73
2023/08/08 09:15:09;;;;;;;;;;;;;;;19.85;54.82;101330.50;4951057;29;19923;-73
2023/08/08 09:17:34;;;;;;;;;;;;;;;19.88;54.60;101329.09;4952034;29;19918;-73
2023/08/08 09:19:59;;;;;;;;;;;;;;;19.89;54.50;101334.28;4940338;28;19969;-73
2023/08/08 09:22:26;;;;;;;;;;;;;;;19.92;54.65;101334.81;4948232;29;19941;-74
2023/08/08 09:24:51;;;;;;;;;;;;;;;19.93;54.98;101333.72;4950857;29;20013;-73
2023/08/08 09:27:17;;;;;;;;;;;;;;;19.94;54.98;101336.16;4952073;29;20017;-74
2023/08/08 09:29:42;;;;;;;;;;;;;;;19.95;54.72;101332.31;4951358;28;20248;-73
2023/08/08 09:32:08;;;;;;;;;;;;;;;19.97;54.99;101329.28;4952043;29;19925;-73
2023/08/08 09:34:33;;;;;;;;;;;;;;;19.98;54.81;101334.50;4950931;29;19979;-72
2023/08/08 09:37:00;;;;;;;;;;;;;;;20.01;54.41;101327.59;4951312;29;19918;-74
2023/08/08 09:39:25;;;;;;;;;;;;;;;20.01;54.44;101333.91;4946465;28;20260;-75
2023/08/08 09:41:50;;;;;;;;;;;;;;;20.04;54.90;101330.56;4950202;28;19930;-74
2023/08/08 09:44:16;;;;;;;;;;;;;;;20.04;54.44;101327.81;4953441;29;19918;-73
2023/08/08 09:46:41;;;;;;;;;;;;;;;20.07;54.40;101332.72;4951337;28;20311;-73
2023/08/08 09:49:06;;;;;;;;;;;;;;;20.09;54.79;101325.03;4954089;29;20278;-73
2023/08/08 09:51:33;;;;;;;;;;;;;;;20.12;54.42;101328.28;4955777;29;19970;-73
2023/08/08 09:53:59;;;;;;;;;;;;;;;20.13;54.41;101318.94;4956152;29;19962;-72
2023/08/08 09:56:25;;;;;;;;;;;;;;;20.15;54.45;101325.78;4954992;29;19961;-73
2023/08/08 09:58:51;;;;;;;;;;;;;;;20.20;54.65;101330.38;4954564;29;19929;-73
2023/08/08 10:01:16;;;;;;;;;;;;;;;20.23;54.79;101322.38;4949707;28;20275;-72
2023/08/08 10:03:45;;;;;;;;;;;;;;;20.25;54.39;101328.38;4954830;28;20351;-74
2023/08/08 10:06:10;;;;;;;;;;;;;;;20.29;54.70;101328.63;4956582;29;19914;-72
2023/08/08 10:08:36;;;;;;;;;;;;;;;20.31;54.80;101326.41;4954205;29;19922;-72
2023/08/08 10:11:02;;;;;;;;;;;;;;;20.34;54.36;101325.00;4954644;29;19969;-72
2023/08/08 10:13:27;;;;;;;;;;;;;;;20.38;54.49;101334.25;4954460;28;19918;-72
2023/08/08 10:15:53;;;;;;;;;;;;;;;20.41;54.35;101340.00;4955664;29;19918;-72
2023/08/08 10:18:21;;;;;;;;;;;;;;;20.44;54.77;101341.34;4970828;28;19919;-72
2023/08/08 10:20:49;;;;;;;;;;;;;;;20.48;54.36;101340.44;4954869;28;19919;-72
2023/08/08 10:23:15;;;;;;;;;;;;;;;20.52;54.24;101338.75;4953612;29;19934;-72
2023/08/08 10:25:48;;;;;;;;;;;;;;;20.56;54.55;101347.22;4955636;29;19977;-69
2023/08/08 10:28:15;;;;;;;;;;;;;;;20.59;54.53;101335.69;4945888;29;19930;-72
2023/08/08 10:30:53;;;;;;;;;;;;;;;20.62;54.27;101334.25;4955497;29;20397;-72
2023/08/08 10:33:23;;;;;;;;;;;;;;;20.65;54.65;101342.72;4953790;29;19922;-74
2023/08/08 10:35:59;;;;;;;;;;;;;;;20.69;54.22;101334.72;4945935;29;19914;-73
2023/08/08 10:38:24;;;;;;;;;;;;;;;20.71;54.38;101325.06;4952904;28;19918;-73
2023/08/08 10:40:57;;;;;;;;;;;;;;;20.75;54.56;101333.50;4954702;28;20095;-73
2023/08/08 10:43:25;;;;;;;;;;;;;;;20.77;54.46;101325.81;4954246;28;19933;-73
2023/08/08 10:45:50;;;;;;;;;;;;;;;20.81;54.52;101331.50;4954166;29;19972;-73
2023/08/08 10:48:18;;;;;;;;;;;;;;;20.83;54.32;101332.84;4952028;28;20009;-73
2023/08/08 10:50:43;;;;;;;;;;;;;;;20.87;54.66;101330.34;4953972;29;19953;-73
2023/08/08 10:53:12;;;;;;;;;;;;;;;20.89;54.50;101328.09;4953808;29;19956;-73
2023/08/08 10:55:37;;;;;;;;;;;;;;;20.92;54.52;101316.53;4953183;29;19992;-73
2023/08/08 10:58:02;;;;;;;;;;;;;;;20.94;54.47;101330.75;4954259;28;20394;-72
2023/08/08 11:00:29;;;;;;;;;;;;;;;20.95;54.19;101335.97;4954025;28;19914;-72
2023/08/08 11:02:57;;;;;;;;;;;;;;;20.98;54.20;101325.50;4953670;29;20421;-72
2023/08/08 11:05:23;;;;;;;;;;;;;;;21.00;54.39;101326.81;4951852;28;19919;-72
2023/08/08 11:07:49;;;;;;;;;;;;;;;21.02;54.09;101326.53;4949494;29;19919;-72
2023/08/08 11:10:14;;;;;;;;;;;;;;;21.03;54.44;101323.47;4954819;28;19914;-74
2023/08/08 11:12:39;;;;;;;;;;;;;;;21.07;54.38;101330.00;4953340;29;19922;-73
2023/08/08 11:15:05;;;;;;;;;;;;;;;21.09;54.39;101327.78;4954533;29;19971;-73
2023/08/08 11:17:31;;;;;;;;;;;;;;;21.11;54.32;101327.47;4954431;28;19922;-73
2023/08/08 11:19:57;;;;;;;;;;;;;;;21.14;54.29;101315.88;4954346;28;19915;-73
2023/08/08 11:22:23;;;;;;;;;;;;;;;21.16;53.83;101310.91;4964418;28;19926;-73
2023/08/08 11:24:49;;;;;;;;;;;;;;;21.15;54.25;101310.09;4945792;28;20438;-73
2023/08/08 11:27:15;;;;;;;;;;;;;;;21.16;53.88;101303.47;4955169;28;19914;-72
2023/08/08 11:29:40;;;;;;;;;;;;;;;21.18;53.71;101308.69;4936888;29;19974;-73
2023/08/08 11:32:06;;;;;;;;;;;;;;;21.20;54.25;101308.38;4954720;29;19961;-73
2023/08/08 11:34:32;;;;;;;;;;;;;;;21.21;54.13;101302.56;4953675;29;20005;-73
2023/08/08 11:36:58;;;;;;;;;;;;;;;21.24;53.57;101304.72;4952422;28;20730;-72
2023/08/08 11:39:23;;;;;;;;;;;;;;;21.29;53.92;101306.56;4951675;28;19929;-72
2023/08/08 11:41:49;;;;;;;;;;;;;;;21.33;53.78;101313.09;4953765;28;20005;-72
2023/08/08 11:44:14;;;;;;;;;;;;;;;21.37;53.34;101316.88;4943951;29;20005;-74
2023/08/08 11:46:43;;;;;;;;;;;;;;;21.41;53.71;101306.94;4951905;29;19922;-73
2023/08/08 11:49:09;;;;;;;;;;;;;;;21.43;53.21;101312.94;4953102;28;19922;-72
2023/08/08 11:51:34;;;;;;;;;;;;;;;21.45;53.61;101310.72;4954160;29;19953;-72
2023/08/08 11:54:01;;;;;;;;;;;;;;;21.47;53.55;101319.47;4952402;28;20007;-71
2023/08/08 11:56:26;;;;;;;;;;;;;;;21.51;53.10;101312.25;4951335;28;20016;-72
2023/08/08 11:58:52;;;;;;;;;;;;;;;21.53;53.03;101311.97;4952956;28;20001;-72
2023/08/08 12:01:21;;;;;;;;;;;;;;;21.55;53.31;101305.03;4953614;28;19922;-72
2023/08/08 12:03:47;;;;;;;;;;;;;;;21.57;53.43;101312.97;4953422;29;19918;-72
2023/08/08 12:06:13;;;;;;;;;;;;;;;21.57;52.88;101308.31;4952881;29;20012;-72
2023/08/08 12:08:40;;;;;;;;;;;;;;;21.56;53.34;101305.84;4952000;28;19918;-75
2023/08/08 12:11:05;;;;;;;;;;;;;;;21.57;53.19;101307.47;4951775;28;19919;-72
2023/08/08 12:13:30;;;;;;;;;;;;;;;21.57;53.17;101305.56;4954318;29;20341;-73
2023/08/08 12:15:58;;;;;;;;;;;;;;;21.60;52.79;101299.44;4952191;29;20363;-72
2023/08/08 12:18:23;;;;;;;;;;;;;;;21.63;52.84;101299.97;4953207;28;19940;-73
2023/08/08 12:20:49;;;;;;;;;;;;;;;21.63;52.96;101299.97;4951842;29;19919;-73
2023/08/08 12:23:15;;;;;;;;;;;;;;;21.65;53.08;101303.22;4951658;28;19970;-73
2023/08/08 12:25:42;;;;;;;;;;;;;;;21.66;52.83;101302.09;4954222;29;19929;-75
2023/08/08 12:28:07;;;;;;;;;;;;;;;21.68;52.66;101294.38;4951694;29;20352;-73